Time;durP1;ratioP1;P1;durP2;ratioP2;P2;SDS_P1;SDS_P2;PMS_P1;PMS_P2;Temp;Humidity;BMP_temperature;BMP_pressure;BME280_temperature;BME280_humidity;BME280_pressure;Samples;Min_cycle;Max_cycle;Signal;HPM_P1;HPM_P2
2022/12/08 00:01:26;;;;;;;10.65;1.27;;;;;;;;;;5093896;28;20178;-80
2022/12/08 00:03:53;;;;;;;10.77;1.25;;;;;;;;;;5093949;28;20048;-79
2022/12/08 00:09:23;;;;;;;7.85;1.38;;;;;;;;;;5095403;28;20060;-80
2022/12/08 00:11:53;;;;;;;9.73;1.52;;;;;;;;;;5093846;28;20044;-79
2022/12/08 00:14:19;;;;;;;4.90;1.30;;;;;;;;;;5095170;28;20087;-79
2022/12/08 00:16:45;;;;;;;5.38;1.27;;;;;;;;;;5094532;28;20462;-79
2022/12/08 00:19:12;;;;;;;7.45;0.93;;;;;;;;;;5094623;28;20476;-79
2022/12/08 00:21:38;;;;;;;6.85;1.20;;;;;;;;;;5094502;28;20127;-79
2022/12/08 00:24:04;;;;;;;5.85;1.52;;;;;;;;;;5093780;28;20130;-80
2022/12/08 00:26:30;;;;;;;7.97;1.63;;;;;;;;;;5093287;28;20094;-79
2022/12/08 00:28:56;;;;;;;9.25;1.35;;;;;;;;;;5094346;28;20044;-78
2022/12/08 00:31:22;;;;;;;3.60;0.70;;;;;;;;;;5094513;28;20464;-78
2022/12/08 00:33:48;;;;;;;5.03;1.15;;;;;;;;;;5094345;28;20155;-78
2022/12/08 00:36:15;;;;;;;4.50;1.25;;;;;;;;;;5076574;28;20048;-78
2022/12/08 00:38:43;;;;;;;4.70;0.88;;;;;;;;;;5093862;28;20484;-78
2022/12/08 00:41:14;;;;;;;5.00;1.30;;;;;;;;;;5094584;28;20412;-78
2022/12/08 00:43:40;;;;;;;6.00;1.20;;;;;;;;;;5094140;28;20051;-79
2022/12/08 00:46:06;;;;;;;6.55;1.40;;;;;;;;;;5094384;28;20452;-79
2022/12/08 00:48:32;;;;;;;4.68;1.20;;;;;;;;;;5093320;28;20476;-79
2022/12/08 00:50:58;;;;;;;5.03;0.90;;;;;;;;;;5093886;28;20050;-79
2022/12/08 00:53:24;;;;;;;6.32;1.30;;;;;;;;;;5094300;28;20074;-79
2022/12/08 00:55:50;;;;;;;2.92;0.60;;;;;;;;;;5092817;28;20055;-79
2022/12/08 00:58:16;;;;;;;4.68;1.10;;;;;;;;;;5094108;28;20048;-80
2022/12/08 01:00:42;;;;;;;7.80;0.98;;;;;;;;;;5071757;28;20068;-80
2022/12/08 01:03:09;;;;;;;6.38;0.90;;;;;;;;;;5072757;28;20056;-79
2022/12/08 01:05:36;;;;;;;6.15;1.00;;;;;;;;;;5073636;28;20489;-80
2022/12/08 01:08:04;;;;;;;4.65;1.08;;;;;;;;;;5073349;28;20123;-79
2022/12/08 01:10:30;;;;;;;5.55;1.65;;;;;;;;;;5056139;28;20053;-80
2022/12/08 01:12:57;;;;;;;4.53;1.20;;;;;;;;;;5073316;28;20416;-80
2022/12/08 01:15:24;;;;;;;7.53;1.48;;;;;;;;;;5073647;28;20048;-81
2022/12/08 01:17:50;;;;;;;8.30;1.23;;;;;;;;;;5073064;28;20044;-81
2022/12/08 01:20:16;;;;;;;4.70;0.90;;;;;;;;;;5072479;28;20048;-81
2022/12/08 01:22:42;;;;;;;9.55;2.20;;;;;;;;;;5073095;28;20044;-80
2022/12/08 01:25:08;;;;;;;5.20;1.38;;;;;;;;;;5073510;28;20124;-81
2022/12/08 01:27:34;;;;;;;5.85;1.23;;;;;;;;;;5073305;28;20040;-80
2022/12/08 01:30:00;;;;;;;5.32;1.00;;;;;;;;;;5072179;28;20055;-80
2022/12/08 01:32:26;;;;;;;5.88;1.40;;;;;;;;;;5072107;28;20388;-80
2022/12/08 01:34:52;;;;;;;5.78;0.90;;;;;;;;;;5071981;28;20490;-79
2022/12/08 01:37:19;;;;;;;10.63;1.02;;;;;;;;;;5088844;28;20047;-80
2022/12/08 01:39:45;;;;;;;8.02;1.02;;;;;;;;;;5072904;28;20067;-79
2022/12/08 01:42:31;;;;;;;7.57;0.82;;;;;;;;;;5073159;28;20048;-79
2022/12/08 01:45:01;;;;;;;3.72;0.60;;;;;;;;;;5072874;28;20430;-80
2022/12/08 01:47:34;;;;;;;4.85;0.90;;;;;;;;;;5073092;28;20044;-79
2022/12/08 01:50:00;;;;;;;5.70;1.00;;;;;;;;;;5072843;28;20048;-79
2022/12/08 01:52:28;;;;;;;4.20;1.33;;;;;;;;;;5073213;28;20561;-79
2022/12/08 01:55:03;;;;;;;6.47;0.75;;;;;;;;;;5072667;28;20048;-79
2022/12/08 01:57:31;;;;;;;4.30;0.90;;;;;;;;;;5073050;28;20124;-79
2022/12/08 02:00:01;;;;;;;5.07;0.65;;;;;;;;;;5071544;28;20053;-79
2022/12/08 02:02:36;;;;;;;5.55;0.77;;;;;;;;;;5072963;28;20040;-79
2022/12/08 02:05:03;;;;;;;6.63;1.13;;;;;;;;;;5072834;28;20084;-79
2022/12/08 02:07:30;;;;;;;4.45;0.90;;;;;;;;;;5071900;28;20048;-79
2022/12/08 02:09:57;;;;;;;4.70;0.80;;;;;;;;;;5072624;28;20139;-79
2022/12/08 02:12:23;;;;;;;5.35;1.20;;;;;;;;;;5073031;28;20084;-79
2022/12/08 02:14:49;;;;;;;4.43;0.85;;;;;;;;;;5071726;28;20139;-80
2022/12/08 02:17:18;;;;;;;5.90;0.90;;;;;;;;;;5072706;28;20127;-79
2022/12/08 02:19:47;;;;;;;5.10;1.00;;;;;;;;;;5072480;28;20449;-79
2022/12/08 02:22:23;;;;;;;11.02;0.88;;;;;;;;;;5072695;28;20095;-79
2022/12/08 02:25:08;;;;;;;2.53;0.65;;;;;;;;;;5071890;28;20052;-80
2022/12/08 02:27:40;;;;;;;4.80;0.80;;;;;;;;;;5071742;28;20095;-80
2022/12/08 02:30:09;;;;;;;3.10;0.70;;;;;;;;;;5072407;28;20044;-80
2022/12/08 02:32:44;;;;;;;2.20;0.65;;;;;;;;;;5072674;28;20049;-80
2022/12/08 02:35:13;;;;;;;5.75;0.82;;;;;;;;;;5072064;28;20055;-80
2022/12/08 02:37:42;;;;;;;3.40;1.27;;;;;;;;;;5076465;28;20529;-80
2022/12/08 02:40:20;;;;;;;5.78;0.90;;;;;;;;;;5076193;28;20135;-80
2022/12/08 02:42:52;;;;;;;6.55;0.73;;;;;;;;;;5075473;28;20404;-80
2022/12/08 02:45:23;;;;;;;2.17;0.57;;;;;;;;;;5076382;28;20044;-80
2022/12/08 02:47:50;;;;;;;6.18;0.75;;;;;;;;;;5076606;28;20144;-80
2022/12/08 02:50:16;;;;;;;5.03;0.95;;;;;;;;;;5075997;28;20056;-80
2022/12/08 02:52:46;;;;;;;6.60;1.15;;;;;;;;;;5075360;28;20087;-80
2022/12/08 02:55:27;;;;;;;6.45;1.00;;;;;;;;;;5075957;28;20044;-79
2022/12/08 02:58:05;;;;;;;7.00;0.90;;;;;;;;;;5075907;28;20206;-79
2022/12/08 03:00:36;;;;;;;6.60;0.98;;;;;;;;;;5075839;28;20562;-79
2022/12/08 03:03:24;;;;;;;3.60;0.77;;;;;;;;;;5091608;28;20500;-78
2022/12/08 03:05:56;;;;;;;3.60;0.65;;;;;;;;;;5075648;28;20527;-78
2022/12/08 03:08:28;;;;;;;3.80;0.40;;;;;;;;;;5076301;28;20052;-77
2022/12/08 03:11:20;;;;;;;2.85;0.40;;;;;;;;;;5075916;28;20473;-77
2022/12/08 03:13:49;;;;;;;1.75;0.40;;;;;;;;;;5089853;28;20215;-77
2022/12/08 03:16:17;;;;;;;3.22;0.50;;;;;;;;;;5075487;28;20102;-77
2022/12/08 03:18:47;;;;;;;1.25;0.50;;;;;;;;;;5075758;28;20084;-77
2022/12/08 03:21:14;;;;;;;1.75;0.60;;;;;;;;;;5075543;28;20044;-77
2022/12/08 03:23:41;;;;;;;4.03;0.60;;;;;;;;;;5075720;28;20044;-77
2022/12/08 03:26:12;;;;;;;4.47;0.60;;;;;;;;;;5075368;28;20115;-77
2022/12/08 03:28:39;;;;;;;0.60;0.35;;;;;;;;;;5074558;28;20048;-78
2022/12/08 03:31:07;;;;;;;3.85;0.70;;;;;;;;;;5075239;28;20095;-78
2022/12/08 03:33:35;;;;;;;1.67;0.40;;;;;;;;;;5075530;28;20045;-78
2022/12/08 03:36:02;;;;;;;2.55;0.70;;;;;;;;;;5075209;28;20098;-78
2022/12/08 03:38:36;;;;;;;3.17;0.60;;;;;;;;;;5074469;28;20060;-78
2022/12/08 03:41:17;;;;;;;2.45;0.80;;;;;;;;;;5075168;28;20087;-79
2022/12/08 03:43:53;;;;;;;3.42;1.05;;;;;;;;;;5075492;28;20462;-78
2022/12/08 03:46:21;;;;;;;2.85;1.00;;;;;;;;;;5072853;28;20048;-79
2022/12/08 03:48:48;;;;;;;4.82;1.58;;;;;;;;;;5074936;28;20048;-79
2022/12/08 03:51:14;;;;;;;1.92;0.70;;;;;;;;;;5074936;28;20123;-78
2022/12/08 03:53:40;;;;;;;1.52;0.70;;;;;;;;;;5075173;28;20066;-78
2022/12/08 03:56:14;;;;;;;1.67;0.70;;;;;;;;;;5073593;28;20358;-78
2022/12/08 03:58:41;;;;;;;1.85;0.70;;;;;;;;;;5075139;28;20052;-78
2022/12/08 04:01:07;;;;;;;1.98;0.73;;;;;;;;;;5074637;28;20059;-78
2022/12/08 04:03:33;;;;;;;1.95;0.90;;;;;;;;;;5073988;28;20055;-78
2022/12/08 04:05:59;;;;;;;2.40;0.80;;;;;;;;;;5074995;28;20040;-78
2022/12/08 04:08:25;;;;;;;1.95;1.13;;;;;;;;;;5074277;28;20519;-78
2022/12/08 04:10:51;;;;;;;2.17;0.95;;;;;;;;;;5073787;28;20131;-78
2022/12/08 04:13:18;;;;;;;3.17;1.20;;;;;;;;;;5074450;28;20048;-78
2022/12/08 04:15:45;;;;;;;4.93;1.58;;;;;;;;;;5073694;28;20049;-78
2022/12/08 04:18:11;;;;;;;2.25;1.00;;;;;;;;;;5074305;28;20052;-78
2022/12/08 04:20:40;;;;;;;2.65;0.80;;;;;;;;;;5074769;28;20051;-79
2022/12/08 04:23:07;;;;;;;5.90;0.70;;;;;;;;;;5073354;28;20048;-79
2022/12/08 04:25:34;;;;;;;2.75;0.70;;;;;;;;;;5074701;28;20130;-78
2022/12/08 04:28:00;;;;;;;3.00;0.65;;;;;;;;;;5073542;28;20136;-78
2022/12/08 04:30:26;;;;;;;3.03;0.52;;;;;;;;;;5074172;28;20455;-78
2022/12/08 04:32:52;;;;;;;1.92;0.57;;;;;;;;;;5090248;28;20055;-78
2022/12/08 04:35:18;;;;;;;2.28;0.50;;;;;;;;;;5074116;28;20048;-78
2022/12/08 04:37:44;;;;;;;1.42;0.63;;;;;;;;;;5074175;28;20082;-78
2022/12/08 04:40:11;;;;;;;2.42;0.65;;;;;;;;;;5074007;28;20084;-78
2022/12/08 04:42:37;;;;;;;2.28;0.70;;;;;;;;;;5074139;28;20052;-78
2022/12/08 04:45:04;;;;;;;3.42;0.60;;;;;;;;;;5074113;28;20139;-78
2022/12/08 04:47:30;;;;;;;2.30;0.60;;;;;;;;;;5073765;28;20136;-78
2022/12/08 04:49:56;;;;;;;0.98;0.40;;;;;;;;;;5073995;28;20131;-78
2022/12/08 04:52:22;;;;;;;1.48;0.50;;;;;;;;;;5072680;28;20048;-78
2022/12/08 04:54:48;;;;;;;2.15;0.55;;;;;;;;;;5074084;28;20058;-78
2022/12/08 04:57:14;;;;;;;1.80;0.50;;;;;;;;;;5073590;28;20053;-78
2022/12/08 04:59:40;;;;;;;2.55;0.63;;;;;;;;;;5072256;28;20522;-78
2022/12/08 05:02:07;;;;;;;2.20;0.60;;;;;;;;;;5073852;28;20504;-78
2022/12/08 05:04:33;;;;;;;2.65;0.70;;;;;;;;;;5073428;28;20052;-78
2022/12/08 05:06:59;;;;;;;5.97;0.93;;;;;;;;;;5073789;28;20131;-78
2022/12/08 05:09:25;;;;;;;1.98;0.50;;;;;;;;;;5073354;28;20131;-79
2022/12/08 05:11:51;;;;;;;2.50;0.77;;;;;;;;;;5073678;28;20132;-79
2022/12/08 05:14:18;;;;;;;2.13;0.60;;;;;;;;;;5073263;28;20048;-78
2022/12/08 05:16:44;;;;;;;1.48;0.60;;;;;;;;;;5072659;28;20045;-79
2022/12/08 05:19:10;;;;;;;1.75;0.60;;;;;;;;;;5073263;28;20071;-79
2022/12/08 05:21:37;;;;;;;2.45;0.63;;;;;;;;;;5073495;28;20055;-79
2022/12/08 05:24:03;;;;;;;2.75;0.70;;;;;;;;;;5073531;28;20048;-79
2022/12/08 05:26:29;;;;;;;2.63;0.82;;;;;;;;;;5073134;28;20051;-79
2022/12/08 05:28:55;;;;;;;4.65;0.90;;;;;;;;;;5073318;28;20054;-79
2022/12/08 05:31:21;;;;;;;2.70;0.90;;;;;;;;;;5072098;28;20052;-79
2022/12/08 05:33:48;;;;;;;3.63;0.95;;;;;;;;;;5073275;28;20055;-79
2022/12/08 05:36:15;;;;;;;3.42;1.20;;;;;;;;;;5088639;28;20048;-79
2022/12/08 05:38:41;;;;;;;2.47;1.00;;;;;;;;;;5073239;28;20048;-79
2022/12/08 05:41:08;;;;;;;2.72;0.85;;;;;;;;;;5072323;28;20136;-79
2022/12/08 05:43:34;;;;;;;4.57;1.35;;;;;;;;;;5071956;28;20127;-79
2022/12/08 05:46:00;;;;;;;6.57;1.25;;;;;;;;;;5072423;28;20044;-79
2022/12/08 05:48:26;;;;;;;3.53;1.00;;;;;;;;;;5071972;28;20091;-79
2022/12/08 05:50:52;;;;;;;7.32;1.20;;;;;;;;;;5072454;28;20139;-80
2022/12/08 05:53:19;;;;;;;5.88;1.23;;;;;;;;;;5071881;28;20400;-79
2022/12/08 05:55:46;;;;;;;5.28;1.33;;;;;;;;;;5073093;28;20132;-79
2022/12/08 05:58:16;;;;;;;5.40;1.20;;;;;;;;;;5073095;28;20044;-80
2022/12/08 06:00:42;;;;;;;5.45;1.48;;;;;;;;;;5072929;28;20122;-80
2022/12/08 06:03:10;;;;;;;6.38;1.40;;;;;;;;;;5072973;28;20052;-79
2022/12/08 06:05:36;;;;;;;3.67;1.10;;;;;;;;;;5072643;28;20468;-78
2022/12/08 06:08:02;;;;;;;7.15;1.50;;;;;;;;;;5072907;28;20076;-78
2022/12/08 06:10:29;;;;;;;5.45;1.00;;;;;;;;;;5079302;28;20079;-78
2022/12/08 06:12:55;;;;;;;6.57;1.02;;;;;;;;;;5095809;28;20547;-77
2022/12/08 06:15:21;;;;;;;8.02;2.67;;;;;;;;;;5097038;28;20126;-77
2022/12/08 06:17:47;;;;;;;7.50;2.30;;;;;;;;;;5095950;28;20083;-77
2022/12/08 06:20:14;;;;;;;6.15;1.60;;;;;;;;;;5097278;28;20055;-78
2022/12/08 06:22:40;;;;;;;9.73;1.80;;;;;;;;;;5096962;28;20056;-79
2022/12/08 06:25:06;;;;;;;2.55;0.98;;;;;;;;;;5097124;28;20044;-78
2022/12/08 06:27:32;;;;;;;5.45;1.30;;;;;;;;;;5095512;28;20421;-78
2022/12/08 06:29:59;;;;;;;7.07;1.25;;;;;;;;;;5096025;28;20054;-78
2022/12/08 06:32:25;;;;;;;5.43;1.38;;;;;;;;;;5096690;28;20507;-78
2022/12/08 06:34:52;;;;;;;6.78;1.60;;;;;;;;;;5095897;28;20404;-79
2022/12/08 06:37:18;;;;;;;9.82;1.60;;;;;;;;;;5095627;28;20087;-78
2022/12/08 06:39:45;;;;;;;7.70;1.50;;;;;;;;;;5096532;28;20055;-78
2022/12/08 06:44:56;;;;;;;4.85;1.70;;;;;;;;;;5095833;28;20051;-78
2022/12/08 06:47:22;;;;;;;6.10;1.38;;;;;;;;;;5095443;28;20044;-78
2022/12/08 06:49:49;;;;;;;8.18;2.25;;;;;;;;;;5096616;28;20131;-78
2022/12/08 06:52:15;;;;;;;6.22;1.83;;;;;;;;;;5095590;28;20048;-78
2022/12/08 06:54:41;;;;;;;4.75;1.60;;;;;;;;;;5096300;28;20043;-78
2022/12/08 06:57:07;;;;;;;7.60;2.10;;;;;;;;;;5096588;28;20137;-78
2022/12/08 06:59:33;;;;;;;7.07;2.10;;;;;;;;;;5096006;28;20465;-78
2022/12/08 07:01:59;;;;;;;10.32;2.95;;;;;;;;;;5096544;28;20059;-78
2022/12/08 07:04:25;;;;;;;12.32;3.40;;;;;;;;;;5096003;28;20117;-78
2022/12/08 07:06:51;;;;;;;9.43;3.05;;;;;;;;;;5095567;28;20186;-78
2022/12/08 07:09:17;;;;;;;7.63;2.70;;;;;;;;;;5096215;28;20127;-78
2022/12/08 07:11:44;;;;;;;5.57;2.28;;;;;;;;;;5095331;28;20897;-78
2022/12/08 07:14:10;;;;;;;6.07;2.03;;;;;;;;;;5095910;28;20130;-78
2022/12/08 07:16:36;;;;;;;9.40;2.65;;;;;;;;;;5095791;28;20048;-78
2022/12/08 07:19:02;;;;;;;5.88;2.20;;;;;;;;;;5096049;28;20048;-78
2022/12/08 07:21:28;;;;;;;7.25;2.17;;;;;;;;;;5095390;28;20043;-78
2022/12/08 07:23:54;;;;;;;4.50;1.92;;;;;;;;;;5095932;28;20100;-78
2022/12/08 07:26:20;;;;;;;5.97;2.03;;;;;;;;;;5094966;28;20461;-78
2022/12/08 07:28:46;;;;;;;9.05;1.90;;;;;;;;;;5095584;28;20048;-78
2022/12/08 07:31:20;;;;;;;4.72;1.90;;;;;;;;;;5095823;28;20054;-78
2022/12/08 07:33:47;;;;;;;7.35;2.15;;;;;;;;;;5095090;28;20403;-78
2022/12/08 07:36:13;;;;;;;5.28;1.77;;;;;;;;;;5094631;28;20109;-78
2022/12/08 07:38:39;;;;;;;8.73;1.92;;;;;;;;;;5095443;28;20461;-78
2022/12/08 07:41:10;;;;;;;9.95;2.30;;;;;;;;;;5095620;28;20093;-78
2022/12/08 07:43:36;;;;;;;6.68;2.20;;;;;;;;;;5094584;28;20094;-78
2022/12/08 07:46:02;;;;;;;7.47;2.00;;;;;;;;;;5095560;28;20102;-78
2022/12/08 07:48:28;;;;;;;5.32;1.80;;;;;;;;;;5095348;28;20130;-79
2022/12/08 07:51:01;;;;;;;9.38;2.75;;;;;;;;;;5095347;28;20083;-79
2022/12/08 07:53:28;;;;;;;8.13;2.97;;;;;;;;;;5094517;28;20051;-79
2022/12/08 07:55:54;;;;;;;7.03;2.58;;;;;;;;;;5095032;28;20108;-79
2022/12/08 07:58:20;;;;;;;7.22;2.60;;;;;;;;;;5077071;28;20051;-78
2022/12/08 08:00:46;;;;;;;5.57;3.10;;;;;;;;;;5094766;28;20479;-83
2022/12/08 08:03:12;;;;;;;6.22;2.60;;;;;;;;;;5077550;28;20115;-78
2022/12/08 08:05:38;;;;;;;6.30;2.67;;;;;;;;;;5094853;28;20122;-77
2022/12/08 08:08:05;;;;;;;12.10;3.30;;;;;;;;;;5095407;28;20494;-78
2022/12/08 08:10:31;;;;;;;6.70;2.78;;;;;;;;;;5095075;28;20043;-77
2022/12/08 08:13:00;;;;;;;7.68;1.88;;;;;;;;;;5094861;28;20070;-76
2022/12/08 08:15:26;;;;;;;9.93;2.50;;;;;;;;;;5094984;28;20047;-81
2022/12/08 08:17:52;;;;;;;7.28;1.90;;;;;;;;;;5094296;28;20590;-80
2022/12/08 08:20:19;;;;;;;7.05;1.90;;;;;;;;;;5094979;28;20131;-80
2022/12/08 08:22:46;;;;;;;8.77;2.38;;;;;;;;;;5094556;28;20087;-82
2022/12/08 08:25:12;;;;;;;6.18;1.85;;;;;;;;;;5093898;28;20132;-79
2022/12/08 08:27:39;;;;;;;7.85;3.70;;;;;;;;;;5094418;28;20127;-81
2022/12/08 08:30:09;;;;;;;12.90;4.75;;;;;;;;;;5077177;28;20087;-81
2022/12/08 08:32:36;;;;;;;9.32;3.78;;;;;;;;;;5093653;28;20087;-81
2022/12/08 08:35:02;;;;;;;6.00;2.80;;;;;;;;;;5093962;28;20127;-82
2022/12/08 08:37:28;;;;;;;10.20;3.17;;;;;;;;;;5093378;28;20094;-82
2022/12/08 08:39:55;;;;;;;8.93;2.50;;;;;;;;;;5094353;28;20052;-82
2022/12/08 08:42:21;;;;;;;8.77;2.40;;;;;;;;;;5094439;28;20094;-81
2022/12/08 08:44:47;;;;;;;6.05;2.30;;;;;;;;;;5094150;28;20048;-81
2022/12/08 08:47:14;;;;;;;5.47;2.03;;;;;;;;;;5094389;28;20439;-79
2022/12/08 08:49:40;;;;;;;8.55;1.90;;;;;;;;;;5093054;28;20044;-79
2022/12/08 08:52:06;;;;;;;9.80;2.08;;;;;;;;;;5094365;28;20185;-80
2022/12/08 08:54:33;;;;;;;8.27;1.45;;;;;;;;;;5094158;28;20209;-81
2022/12/08 08:56:59;;;;;;;6.20;1.90;;;;;;;;;;5092738;28;20044;-81
2022/12/08 08:59:26;;;;;;;5.72;2.35;;;;;;;;;;5093265;28;20135;-81
2022/12/08 09:01:53;;;;;;;5.50;1.60;;;;;;;;;;5093905;28;20055;-80
2022/12/08 09:04:19;;;;;;;7.38;1.50;;;;;;;;;;5092775;28;20040;-81
2022/12/08 09:06:46;;;;;;;6.35;1.58;;;;;;;;;;5092421;28;20048;-80
2022/12/08 09:09:13;;;;;;;5.82;1.60;;;;;;;;;;5093952;28;20117;-79
2022/12/08 09:11:39;;;;;;;8.63;1.70;;;;;;;;;;5093910;28;20426;-79
2022/12/08 09:14:06;;;;;;;6.20;1.45;;;;;;;;;;5093818;28;20128;-80
2022/12/08 09:16:32;;;;;;;8.57;2.05;;;;;;;;;;5093851;28;20138;-83
2022/12/08 09:18:59;;;;;;;8.90;1.92;;;;;;;;;;5092120;28;20044;-81
2022/12/08 09:21:26;;;;;;;8.80;2.50;;;;;;;;;;5092763;28;20484;-82
2022/12/08 09:23:52;;;;;;;7.35;2.47;;;;;;;;;;5092499;28;20457;-79
2022/12/08 09:26:22;;;;;;;9.48;2.72;;;;;;;;;;5093646;28;20083;-80
2022/12/08 09:28:52;;;;;;;5.57;2.25;;;3.00;99.90;;;;;;5092353;28;20135;-80
2022/12/08 09:31:19;;;;;;;7.50;2.40;;;2.90;99.90;;;;;;5093703;28;20070;-81
2022/12/08 09:33:45;;;;;;;9.55;2.20;;;3.00;99.90;;;;;;5093334;28;20044;-80
2022/12/08 09:36:11;;;;;;;8.13;2.20;;;3.00;99.90;;;;;;5093401;28;20117;-80
2022/12/08 09:38:37;;;;;;;12.40;2.47;;;;;;;;;;5093606;28;20052;-81
2022/12/08 09:41:05;;;;;;;9.93;2.38;;;;;;;;;;5093289;28;20058;-81
2022/12/08 09:43:43;;;;;;;11.30;2.13;;;;;;;;;;5093538;28;20434;-78
2022/12/08 09:46:11;;;;;;;14.25;3.20;;;2.00;99.90;;;;;;5093338;28;20047;-77
2022/12/08 09:48:43;;;;;;;14.05;2.60;;;3.00;99.90;;;;;;5093700;28;20445;-79
2022/12/08 09:51:11;;;;;;;10.10;2.72;;;3.40;99.90;;;;;;5093356;28;20103;-79
2022/12/08 09:53:49;;;;;;;9.73;2.10;;;3.00;99.90;;;;;;5093307;28;20051;-78
2022/12/08 09:56:19;;;;;;;9.70;2.30;;;3.00;99.90;;;;;;5093428;28;20044;-78
2022/12/08 09:59:00;;;;;;;7.88;2.00;;;3.00;99.90;;;;;;5093539;28;20101;-78
2022/12/08 10:01:28;;;;;;;11.20;2.78;;;2.80;99.90;;;;;;5092876;28;20173;-78
2022/12/08 10:03:54;;;;;;;7.45;2.17;;;2.80;99.90;;;;;;5093031;28;20441;-76
2022/12/08 10:06:54;;;;;;;10.88;2.97;;;2.90;99.90;;;;;;5093251;28;20048;-78
2022/12/08 10:09:48;;;;;;;8.70;2.40;;;2.90;99.90;;;;;;5093166;28;20051;-75
2022/12/08 10:12:25;;;;;;;12.32;2.25;;;2.90;99.90;;;;;;5092262;28;20062;-80
2022/12/08 10:15:56;;;;;;;7.50;2.05;;;2.90;99.90;;;;;;5092712;28;20090;-76
2022/12/08 10:18:26;;;;;;;15.10;2.42;;;2.90;99.90;;;;;;5090856;28;20474;-81
2022/12/08 10:20:56;;;;;;;10.10;2.00;;;2.90;99.90;;;;;;5087643;28;20484;-78
2022/12/08 10:23:31;;;;;;;7.88;1.90;;;2.90;99.90;;;;;;5092432;28;20055;-77
2022/12/08 10:25:56;;;;;;;10.82;2.40;;;2.90;99.90;;;;;;5092793;28;20114;-76
2022/12/08 10:28:22;;;;;;;13.40;2.40;;;2.90;99.90;;;;;;5091939;28;20087;-77
2022/12/08 10:30:48;;;;;;;6.73;2.07;;;3.20;99.90;;;;;;5092890;28;20048;-78
2022/12/08 10:33:19;;;;;;;7.07;1.60;;;2.90;99.90;;;;;;5092664;28;20047;-78
2022/12/08 10:35:55;;;;;;;8.60;2.10;;;3.00;99.90;;;;;;5092847;28;20048;-77
2022/12/08 10:38:33;;;;;;;10.68;2.00;;;3.00;99.90;;;;;;5092809;28;20044;-77
2022/12/08 10:41:19;;;;;;;9.52;2.58;;;3.10;99.90;;;;;;5092604;28;20127;-78
2022/12/08 10:43:58;;;;;;;12.30;2.17;;;3.10;99.90;;;;;;5091792;28;20040;-78
2022/12/08 10:46:26;;;;;;;13.70;2.35;;;3.20;99.90;;;;;;5093044;28;20044;-84
2022/12/08 10:49:09;;;;;;;14.32;2.97;;;3.20;99.90;;;;;;5092508;28;20502;-83
2022/12/08 10:51:41;;;;;;;7.05;2.47;;;3.20;99.90;;;;;;5092458;28;20088;-82
2022/12/08 10:54:32;;;;;;;8.15;2.40;;;3.40;99.90;;;;;;5091276;28;20131;-81
2022/12/08 10:56:58;;;;;;;11.25;2.80;;;3.40;99.90;;;;;;5094365;28;20511;-81
2022/12/08 10:59:28;;;;;;;7.37;2.43;;;3.50;99.90;;;;;;5096466;28;20051;-78
2022/12/08 11:01:55;;;;;;;12.05;2.17;;;3.60;99.90;;;;;;5095779;28;20621;-74
2022/12/08 11:04:29;;;;;;;12.05;2.53;;;3.70;99.90;;;;;;5096565;28;20081;-82
2022/12/08 11:06:55;;;;;;;8.88;1.75;;;3.70;99.90;;;;;;5094874;28;20048;-81
2022/12/08 11:09:24;;;;;;;7.13;2.40;;;3.70;99.90;;;;;;5095327;28;20048;-81
2022/12/08 11:11:58;;;;;;;10.43;1.95;;;3.80;99.90;;;;;;5094843;28;20496;-81
2022/12/08 11:14:30;;;;;;;8.77;1.70;;;3.80;99.90;;;;;;5096269;28;20483;-83
2022/12/08 11:17:06;;;;;;;7.38;1.60;;;3.90;99.90;;;;;;5096027;28;20104;-81
2022/12/08 11:19:35;;;;;;;;;;;3.90;99.90;;;;;;5095536;28;20491;-78
2022/12/08 11:22:01;;;;;;;8.82;1.65;;;3.90;99.90;;;;;;5095809;28;20011;-82
2022/12/08 11:24:28;;;;;;;8.13;1.77;;;3.80;99.90;;;;;;5096327;28;20136;-79
2022/12/08 11:27:01;;;;;;;8.85;1.90;;;3.90;99.90;;;;;;5077712;28;20047;-80
2022/12/08 11:29:29;;;;;;;5.85;1.40;;;3.90;99.90;;;;;;5095896;28;20040;-84
2022/12/08 11:32:00;;;;;;;4.65;1.17;;;3.80;99.90;;;;;;5094822;28;20083;-80
2022/12/08 11:34:54;;;;;;;7.68;1.20;;;3.80;99.90;;;;;;5094850;28;20048;-80
2022/12/08 11:37:39;;;;;;;7.35;1.40;;;3.70;99.90;;;;;;5095499;28;20484;-80
2022/12/08 11:40:28;;;;;;;7.63;1.70;;;3.60;99.90;;;;;;5095530;28;20047;-76
2022/12/08 11:43:05;;;;;;;7.70;1.35;;;3.50;99.90;;;;;;5095713;28;20048;-80
2022/12/08 11:45:34;;;;;;;10.57;1.50;;;3.50;99.90;;;;;;5095682;28;20059;-83
2022/12/08 11:48:20;;;;;;;7.13;1.15;;;3.50;99.90;;;;;;5095686;28;20046;-79
2022/12/08 11:50:54;;;;;;;4.65;1.35;;;3.50;99.90;;;;;;5094489;28;20058;-80
2022/12/08 11:53:55;;;;;;;5.45;1.10;;;3.50;99.90;;;;;;5094292;28;20044;-87
2022/12/08 11:56:31;;;;;;;6.65;1.10;;;3.40;99.90;;;;;;5083050;28;20071;-85
2022/12/08 11:59:01;;;;;;;8.98;1.35;;;3.40;99.90;;;;;;5094588;28;20055;-84
2022/12/08 12:01:26;;;;;;;7.28;1.05;;;3.40;99.90;;;;;;5094988;28;20062;-85
2022/12/08 12:04:01;;;;;;;6.47;1.30;;;3.50;99.90;;;;;;5095241;28;20138;-85
2022/12/08 12:06:45;;;;;;;7.85;1.20;;;3.60;99.90;;;;;;5093750;28;20040;-84
2022/12/08 12:09:17;;;;;;;7.47;1.73;;;3.60;99.90;;;;;;5093928;28;20396;-85
2022/12/08 12:12:12;;;;;;;4.38;1.38;;;3.60;99.90;;;;;;5094047;28;20052;-81
2022/12/08 12:15:15;;;;;;;8.68;1.45;;;3.60;99.90;;;;;;5095144;28;20071;-74
2022/12/08 12:17:45;;;;;;;9.23;1.23;;;3.70;99.90;;;;;;5094888;28;20056;-79
2022/12/08 12:20:43;;;;;;;5.35;1.20;;;3.70;99.90;;;;;;5093781;28;20055;-85
2022/12/08 12:23:19;;;;;;;6.38;1.23;;;3.70;99.90;;;;;;5094739;28;20161;-83
2022/12/08 12:25:54;;;;;;;8.90;1.52;;;3.70;99.90;;;;;;5094216;28;20051;-80
2022/12/08 12:28:23;;;;;;;5.45;1.42;;;3.70;99.90;;;;;;5094882;28;20040;-80
2022/12/08 12:30:59;;;;;;;5.80;1.38;;;3.70;99.90;;;;;;5094871;28;20048;-81
2022/12/08 12:33:25;;;;;;;8.45;1.60;;;3.70;99.90;;;;;;5094481;28;20127;-80
2022/12/08 12:35:56;;;;;;;8.48;1.58;;;3.70;99.90;;;;;;5093684;28;20177;-80
2022/12/08 12:39:05;;;;;;;5.40;1.00;;;3.70;99.90;;;;;;5094354;28;20074;-81
2022/12/08 12:41:47;;;;;;;6.85;1.33;;;3.80;99.90;;;;;;5094348;28;20130;-81
2022/12/08 12:44:13;;;;;;;9.90;1.50;;;3.80;99.90;;;;;;5093095;28;20377;-81
2022/12/08 12:46:41;;;;;;;3.83;1.07;;;3.90;99.90;;;;;;5094418;28;20101;-81
2022/12/08 12:49:37;;;;;;;9.18;1.73;;;3.90;99.90;;;;;;5093540;28;20047;-81
2022/12/08 12:52:32;;;;;;;8.63;1.75;;;4.00;99.90;;;;;;5094310;28;20117;-82
2022/12/08 12:54:58;;;;;;;6.40;1.30;;;4.10;99.90;;;;;;5089164;28;20063;-84
2022/12/08 12:57:34;;;;;;;5.63;0.97;;;4.20;99.90;;;;;;5093830;28;20044;-89
2022/12/08 12:59:59;;;;;;;3.40;1.00;;;4.20;99.90;;;;;;5090608;28;20059;-86
2022/12/08 13:02:43;;;;;;;8.93;1.10;;;4.20;99.90;;;;;;5090868;28;20078;-92
2022/12/08 13:05:12;;;;;;;8.77;1.33;;;4.30;99.90;;;;;;5092316;28;20408;-78
2022/12/08 13:07:56;;;;;;;8.98;1.45;;;;;;;;;;5092865;28;20392;-87
2022/12/08 13:10:30;;;;;;;5.50;1.00;;;4.50;99.90;;;;;;5090465;28;20052;-86
2022/12/08 13:13:09;;;;;;;5.10;1.10;;;4.50;99.90;;;;;;5092328;28;20082;-82
2022/12/08 13:16:02;;;;;;;5.05;0.98;;;4.50;99.90;;;;;;5092277;28;20101;-82
2022/12/08 13:18:37;;;;;;;4.97;0.93;;;4.50;99.90;;;;;;5090943;28;20052;-85
2022/12/08 13:21:07;;;;;;;5.65;1.13;;;4.60;99.90;;;;;;5085976;28;20555;-83
2022/12/08 13:23:36;;;;;;;4.90;1.00;;;4.60;99.90;;;;;;5090980;28;20123;-81
2022/12/08 13:26:18;;;;;;;3.72;1.00;;;4.60;99.90;;;;;;5091476;28;20052;-84
2022/12/08 13:29:05;;;;;;;8.45;1.25;;;4.60;99.90;;;;;;5092511;28;20052;-79
2022/12/08 13:31:43;;;;;;;7.20;1.50;;;4.60;99.90;;;;;;5091427;28;20059;-85
2022/12/08 13:34:48;;;;;;;5.97;1.20;;;4.60;99.90;;;;;;5092705;28;20039;-86
2022/12/08 13:37:43;;;;;;;6.65;1.27;;;4.60;99.90;;;;;;5073621;28;20059;-80
2022/12/08 13:40:17;;;;;;;4.32;1.20;;;4.60;99.90;;;;;;5092103;28;20127;-77
2022/12/08 13:42:55;;;;;;;7.10;1.75;;;4.60;99.90;;;;;;5092017;28;20052;-80
2022/12/08 13:45:25;;;;;;;5.38;1.50;;;4.60;99.90;;;;;;5092278;28;20048;-80
2022/12/08 13:48:15;;;;;;;5.30;1.35;;;4.60;99.90;;;;;;5092802;28;20044;-76
2022/12/08 13:51:04;;;;;;;6.35;1.63;;;4.60;99.90;;;;;;5107820;28;20052;-75
2022/12/08 13:53:36;;;;;;;4.80;1.40;;;;;;;;;;5091986;28;20048;-79
2022/12/08 13:56:02;;;;;;;8.82;2.03;;;;;;;;;;5092523;28;20088;-83
2022/12/08 13:58:31;;;;;;;7.60;1.73;;;;;;;;;;5108520;28;20091;-79
2022/12/08 14:01:15;;;;;;;5.93;1.50;;;;;;;;;;5091476;28;20496;-82
2022/12/08 14:03:44;;;;;;;5.30;1.77;;;;;;;;;;5093213;28;20048;-85
2022/12/08 14:06:16;;;;;;;6.18;1.60;;;;;;;;;;5091940;28;20052;-85
2022/12/08 14:08:43;;;;;;;8.70;1.60;;;;;;;;;;5093182;28;20048;-84
2022/12/08 14:11:10;;;;;;;9.60;1.70;;;;;;;;;;5088831;28;20506;-84
2022/12/08 14:13:36;;;;;;;8.38;1.60;;;;;;;;;;5091532;28;20555;-83
2022/12/08 14:16:02;;;;;;;8.48;1.20;;;4.40;99.90;;;;;;5090884;28;20485;-83
2022/12/08 14:18:29;;;;;;;6.00;1.20;;;;;;;;;;5090128;28;20124;-82
2022/12/08 14:21:10;;;;;;;5.65;1.30;;;4.40;99.90;;;;;;5091960;28;20051;-79
2022/12/08 14:23:36;;;;;;;5.60;1.20;;;4.40;99.90;;;;;;5091629;28;20044;-82
2022/12/08 14:26:06;;;;;;;5.40;1.00;;;;;;;;;;5090276;28;20113;-76
2022/12/08 14:28:32;;;;;;;5.40;1.40;;;4.40;99.90;;;;;;5090561;28;20395;-83
2022/12/08 14:30:59;;;;;;;5.10;1.10;;;;;;;;;;5092620;28;20047;-83
2022/12/08 14:33:26;;;;;;;6.65;1.10;;;4.40;99.90;;;;;;5095290;28;20048;-80